createdAt,value
2022-12-08T00:01:12.816Z,101050.34
2022-12-08T00:03:39.415Z,101040.47
2022-12-08T00:06:25.983Z,101029.34
2022-12-08T00:09:21.509Z,101017.59
2022-12-08T00:12:09.110Z,101012.28
2022-12-08T00:14:41.968Z,101012.00
2022-12-08T00:17:10.706Z,101008.47
2022-12-08T00:19:39.019Z,100998.81
2022-12-08T00:22:07.921Z,101002.28
2022-12-08T00:24:38.391Z,101005.59
2022-12-08T00:27:05.255Z,100999.47
2022-12-08T00:29:31.728Z,100997.72
2022-12-08T00:31:58.345Z,100985.25
2022-12-08T00:34:24.959Z,100989.31
2022-12-08T00:36:51.390Z,100980.06
2022-12-08T00:39:18.442Z,100982.44
2022-12-08T00:42:04.185Z,100983.16
2022-12-08T00:44:30.535Z,100976.72
2022-12-08T00:46:57.109Z,100975.13
2022-12-08T00:49:23.565Z,100966.72
2022-12-08T00:51:49.998Z,100974.50
2022-12-08T00:54:16.796Z,100974.22
2022-12-08T00:56:43.168Z,100970.91
2022-12-08T00:59:10.002Z,100971.41
2022-12-08T01:01:36.865Z,100966.13
2022-12-08T01:04:08.011Z,100968.63
2022-12-08T01:06:37.998Z,100971.41
2022-12-08T01:09:06.555Z,100971.63
2022-12-08T01:11:34.170Z,100960.03
2022-12-08T01:14:00.949Z,100965.84
2022-12-08T01:16:29.758Z,100958.59
2022-12-08T01:18:57.800Z,100959.81
2022-12-08T01:21:24.468Z,100960.22
2022-12-08T01:23:50.896Z,100955.75
2022-12-08T01:26:19.166Z,100960.47
2022-12-08T01:28:45.750Z,100964.28
2022-12-08T01:31:15.430Z,100961.19
2022-12-08T01:33:42.211Z,100961.50
2022-12-08T01:36:18.411Z,100968.34
2022-12-08T01:38:44.792Z,100958.69
2022-12-08T01:41:16.220Z,100961.00
2022-12-08T01:44:04.872Z,100959.88
2022-12-08T01:46:32.596Z,100958.09
2022-12-08T01:49:05.582Z,100958.28
2022-12-08T01:51:36.854Z,100955.59
2022-12-08T01:54:05.610Z,100954.13
2022-12-08T01:56:36.923Z,100944.41
2022-12-08T01:59:03.591Z,100947.09
2022-12-08T02:01:30.167Z,100947.00
2022-12-08T02:03:59.842Z,100942.44
2022-12-08T02:06:29.555Z,100934.75
2022-12-08T02:08:57.919Z,100932.66
2022-12-08T02:11:24.460Z,100928.41
2022-12-08T02:13:53.215Z,100923.00
2022-12-08T02:16:25.478Z,100924.88
2022-12-08T02:19:33.000Z,100921.22
2022-12-08T02:22:28.091Z,100927.88
2022-12-08T02:25:15.792Z,100936.44
2022-12-08T02:28:01.466Z,100930.38
2022-12-08T02:30:46.431Z,100926.88
2022-12-08T02:33:56.010Z,100921.88
2022-12-08T02:36:32.253Z,100913.69
2022-12-08T02:39:28.037Z,100917.13
2022-12-08T02:42:27.438Z,100908.16
2022-12-08T02:45:04.121Z,100902.34
2022-12-08T02:47:33.517Z,100912.31
2022-12-08T02:49:59.931Z,100902.66
2022-12-08T02:52:26.277Z,100901.72
2022-12-08T02:54:57.625Z,100897.38
2022-12-08T02:57:42.358Z,100896.22
2022-12-08T03:00:16.575Z,100888.97
2022-12-08T03:02:54.938Z,100893.22
2022-12-08T03:05:21.420Z,100886.16
2022-12-08T03:07:57.387Z,100885.03
2022-12-08T03:10:29.976Z,100874.56
2022-12-08T03:13:07.760Z,100863.63
2022-12-08T03:15:36.785Z,100864.50
2022-12-08T03:18:05.293Z,100862.50
2022-12-08T03:20:34.265Z,100860.75
2022-12-08T03:23:05.381Z,100853.88
2022-12-08T03:25:36.984Z,100852.63
2022-12-08T03:28:05.099Z,100850.47
2022-12-08T03:30:36.611Z,100835.41
2022-12-08T03:33:19.246Z,100836.53
2022-12-08T03:35:46.703Z,100840.28
2022-12-08T03:38:15.949Z,100846.94
2022-12-08T03:40:43.007Z,100847.06
2022-12-08T03:43:09.994Z,100841.00
2022-12-08T03:45:36.510Z,100832.19
2022-12-08T03:48:03.058Z,100840.41
2022-12-08T03:50:29.488Z,100832.09
2022-12-08T03:52:55.878Z,100830.53
2022-12-08T03:55:22.225Z,100826.09
2022-12-08T03:57:48.646Z,100822.13
2022-12-08T04:00:17.050Z,100821.72
2022-12-08T04:02:43.635Z,100816.84
2022-12-08T04:05:10.132Z,100817.25
2022-12-08T04:07:36.754Z,100819.84
2022-12-08T04:10:04.287Z,100813.09
2022-12-08T04:12:31.316Z,100811.66
2022-12-08T04:14:57.754Z,100804.88
2022-12-08T04:17:24.269Z,100802.00
2022-12-08T04:19:50.706Z,100812.38
2022-12-08T04:22:17.094Z,100810.19
2022-12-08T04:24:43.508Z,100805.00
2022-12-08T04:27:09.941Z,100805.63
2022-12-08T04:29:36.395Z,100802.94
2022-12-08T04:32:02.920Z,100800.22
2022-12-08T04:34:29.363Z,100789.53
2022-12-08T04:36:55.827Z,100793.81
2022-12-08T04:39:22.351Z,100788.72
2022-12-08T04:41:48.777Z,100788.28
2022-12-08T04:44:15.237Z,100789.00
2022-12-08T04:46:43.684Z,100790.47
2022-12-08T04:49:10.529Z,100796.91
2022-12-08T04:51:36.983Z,100795.16
2022-12-08T04:54:03.418Z,100790.97
2022-12-08T04:56:30.624Z,100799.72
2022-12-08T04:58:56.963Z,100799.28
2022-12-08T05:01:23.462Z,100800.84
2022-12-08T05:03:50.107Z,100789.84
2022-12-08T05:06:16.623Z,100787.88
2022-12-08T05:08:44.055Z,100786.72
2022-12-08T05:11:12.593Z,100780.53
2022-12-08T05:13:39.427Z,100780.63
2022-12-08T05:16:08.775Z,100786.72
2022-12-08T05:18:35.895Z,100778.22
2022-12-08T05:21:04.768Z,100781.25
2022-12-08T05:23:31.249Z,100778.75
2022-12-08T05:25:57.890Z,100774.78
2022-12-08T05:28:41.892Z,100769.72
2022-12-08T05:31:09.193Z,100764.72
2022-12-08T05:33:35.700Z,100780.28
2022-12-08T05:36:02.130Z,100775.19
2022-12-08T05:38:29.432Z,100767.84
2022-12-08T05:40:55.879Z,100772.59
2022-12-08T05:43:22.245Z,100771.69
2022-12-08T05:45:48.826Z,100770.44
2022-12-08T05:48:15.397Z,100767.75
2022-12-08T05:50:47.724Z,100763.28
2022-12-08T05:53:15.093Z,100758.91
2022-12-08T05:55:41.492Z,100761.41
2022-12-08T05:58:12.759Z,100763.59
2022-12-08T06:00:39.442Z,100768.78
2022-12-08T06:03:05.987Z,100763.78
2022-12-08T06:05:33.599Z,100766.06
2022-12-08T06:08:00.072Z,100766.91
2022-12-08T06:10:26.658Z,100757.25
2022-12-08T06:12:53.029Z,100767.31
2022-12-08T06:15:19.624Z,100760.16
2022-12-08T06:17:46.259Z,100756.84
2022-12-08T06:20:12.955Z,100748.75
2022-12-08T06:22:40.585Z,100756.97
2022-12-08T06:25:10.153Z,100757.06
2022-12-08T06:27:36.848Z,100764.63
2022-12-08T06:30:04.035Z,100759.97
2022-12-08T06:32:30.815Z,100764.41
2022-12-08T06:34:57.287Z,100759.66
2022-12-08T06:37:23.701Z,100762.88
2022-12-08T06:39:50.143Z,100754.97
2022-12-08T06:42:35.176Z,100758.50
2022-12-08T06:45:01.734Z,100756.22
2022-12-08T06:47:28.120Z,100758.81
2022-12-08T06:49:54.538Z,100753.63
2022-12-08T06:52:21.007Z,100757.75
2022-12-08T06:54:47.436Z,100762.13
2022-12-08T06:57:13.890Z,100756.03
2022-12-08T06:59:40.311Z,100768.16
2022-12-08T07:02:07.134Z,100768.78
2022-12-08T07:04:33.545Z,100763.09
2022-12-08T07:07:00.000Z,100764.53
2022-12-08T07:09:26.490Z,100764.41
2022-12-08T07:11:52.898Z,100765.69
2022-12-08T07:14:23.588Z,100775.53
2022-12-08T07:16:50.841Z,100770.00
2022-12-08T07:19:17.977Z,100775.53
2022-12-08T07:21:44.593Z,100782.78
2022-12-08T07:24:11.662Z,100778.94
2022-12-08T07:26:38.379Z,100776.88
2022-12-08T07:29:04.799Z,100772.84
2022-12-08T07:31:31.587Z,100776.16
2022-12-08T07:33:58.201Z,100775.13
2022-12-08T07:36:25.003Z,100768.06
2022-12-08T07:38:53.609Z,100772.41
2022-12-08T07:41:23.699Z,100764.41
2022-12-08T07:43:50.727Z,100758.81
2022-12-08T07:46:19.900Z,100763.25
2022-12-08T07:48:47.005Z,100761.50
2022-12-08T07:51:14.964Z,100768.88
2022-12-08T07:53:45.364Z,100766.59
2022-12-08T07:56:15.068Z,100764.94
2022-12-08T07:58:41.818Z,100761.41
2022-12-08T08:01:19.798Z,100761.94
2022-12-08T08:03:46.224Z,100760.56
2022-12-08T08:06:12.619Z,100757.03
2022-12-08T08:08:40.143Z,100754.75
2022-12-08T08:11:15.789Z,100757.97
2022-12-08T08:13:45.986Z,100765.25
2022-12-08T08:16:15.871Z,100760.38
2022-12-08T08:18:43.469Z,100763.78
2022-12-08T08:21:36.596Z,100770.44
2022-12-08T08:23:56.393Z,100778.13
2022-12-08T08:26:23.087Z,100772.84
2022-12-08T08:28:50.116Z,100772.09
2022-12-08T08:31:16.644Z,100777.72
2022-12-08T08:33:43.129Z,100772.50
2022-12-08T08:36:10.484Z,100764.50
2022-12-08T08:38:40.251Z,100764.91
2022-12-08T08:41:13.196Z,100770.63
2022-12-08T08:43:40.354Z,100774.13
2022-12-08T08:46:09.117Z,100776.31
2022-12-08T08:48:36.314Z,100779.56
2022-12-08T08:51:10.539Z,100782.13
2022-12-08T08:53:37.586Z,100774.78
2022-12-08T08:56:09.165Z,100771.97
2022-12-08T08:58:35.552Z,100770.63
2022-12-08T09:01:01.941Z,100774.47
2022-12-08T09:03:28.377Z,100773.22
2022-12-08T09:05:56.181Z,100777.91
2022-12-08T09:08:23.545Z,100773.53
2022-12-08T09:10:50.063Z,100777.81
2022-12-08T09:13:16.545Z,100768.97
2022-12-08T09:15:42.971Z,100780.41
2022-12-08T09:18:09.557Z,100777.28
2022-12-08T09:20:36.094Z,100777.50
2022-12-08T09:23:02.627Z,100778.09
2022-12-08T09:25:29.269Z,100772.09
2022-12-08T09:27:55.697Z,100776.84
2022-12-08T09:30:22.497Z,100776.63
2022-12-08T09:32:49.427Z,100780.59
2022-12-08T09:35:16.434Z,100783.00
2022-12-08T09:37:43.262Z,100788.50
2022-12-08T09:40:15.868Z,100781.66
2022-12-08T09:42:51.109Z,100787.47
2022-12-08T09:45:19.104Z,100797.53
2022-12-08T09:48:00.997Z,100796.41
2022-12-08T09:50:32.309Z,100802.91
2022-12-08T09:53:32.074Z,100800.56
2022-12-08T09:56:13.363Z,100792.75
2022-12-08T09:59:02.397Z,100794.72
2022-12-08T10:01:32.249Z,100790.97
2022-12-08T10:03:59.519Z,100786.84
2022-12-08T10:07:16.945Z,100795.34
2022-12-08T10:10:07.716Z,100779.88
2022-12-08T10:12:41.932Z,100784.22
2022-12-08T10:15:47.362Z,100777.78
2022-12-08T10:18:17.849Z,100765.06
2022-12-08T10:20:48.656Z,100776.06
2022-12-08T10:23:21.458Z,100765.25
2022-12-08T10:25:50.612Z,100761.22
2022-12-08T10:28:17.026Z,100759.97
2022-12-08T10:30:44.190Z,100758.28
2022-12-08T10:33:22.098Z,100750.22
2022-12-08T10:35:58.316Z,100743.66
2022-12-08T10:38:36.468Z,100745.84
2022-12-08T10:41:12.043Z,100748.03
2022-12-08T10:43:43.950Z,100741.59
2022-12-08T10:46:14.143Z,100742.63
2022-12-08T10:48:56.038Z,100744.06
2022-12-08T10:51:42.715Z,100747.81
2022-12-08T10:54:34.258Z,100740.53
2022-12-08T10:57:00.713Z,100736.00
2022-12-08T10:59:27.585Z,100734.63
2022-12-08T11:01:56.185Z,100742.31
2022-12-08T11:04:29.278Z,100733.59
2022-12-08T11:06:55.820Z,100740.13
2022-12-08T11:09:25.819Z,100738.91
2022-12-08T11:11:56.547Z,100739.31
2022-12-08T11:14:41.617Z,100734.00
2022-12-08T11:17:24.199Z,100740.13
2022-12-08T11:19:58.469Z,100743.97
2022-12-08T11:22:35.220Z,100743.16
2022-12-08T11:25:12.765Z,100742.91
2022-12-08T11:27:44.801Z,100748.22
2022-12-08T11:30:21.296Z,100737.41
2022-12-08T11:32:57.364Z,100733.66
2022-12-08T11:35:30.673Z,100728.91
2022-12-08T11:38:20.560Z,100731.50
2022-12-08T11:40:52.160Z,100732.53
2022-12-08T11:43:30.982Z,100737.31
2022-12-08T11:46:12.427Z,100728.66
2022-12-08T11:49:06.241Z,100730.19
2022-12-08T11:51:57.460Z,100728.03
2022-12-08T11:54:26.681Z,100727.41
2022-12-08T11:56:55.983Z,100725.53
2022-12-08T11:59:35.861Z,100724.72
2022-12-08T12:02:05.190Z,100719.72
2022-12-08T12:04:50.090Z,100711.22
2022-12-08T12:08:15.348Z,100715.09
2022-12-08T12:11:05.792Z,100706.25
2022-12-08T12:13:56.871Z,100707.78
2022-12-08T12:17:02.855Z,100707.78
2022-12-08T12:19:34.013Z,100697.94
2022-12-08T12:22:12.085Z,100694.19
2022-12-08T12:24:39.480Z,100701.25
2022-12-08T12:27:14.962Z,100694.63
2022-12-08T12:29:52.243Z,100695.44
2022-12-08T12:32:22.567Z,100690.44
2022-12-08T12:34:52.153Z,100688.81
2022-12-08T12:37:38.778Z,100683.50
2022-12-08T12:40:19.377Z,100681.63
2022-12-08T12:42:49.207Z,100682.88
2022-12-08T12:45:19.975Z,100678.44
2022-12-08T12:47:57.146Z,100680.50
2022-12-08T12:50:51.496Z,100676.22
2022-12-08T12:53:20.816Z,100670.53
2022-12-08T12:55:56.183Z,100658.75
2022-12-08T12:58:28.477Z,100654.81
2022-12-08T13:01:10.204Z,100655.22
2022-12-08T13:03:43.529Z,100654.16
2022-12-08T13:06:14.725Z,100663.91
2022-12-08T13:08:50.985Z,100653.81
2022-12-08T13:11:17.781Z,100667.78
2022-12-08T13:14:03.160Z,100652.63
2022-12-08T13:16:37.251Z,100653.97
2022-12-08T13:19:05.657Z,100656.75
2022-12-08T13:21:38.084Z,100660.75
2022-12-08T13:24:10.522Z,100652.63
2022-12-08T13:26:48.074Z,100651.28
2022-12-08T13:29:21.849Z,100642.69
2022-12-08T13:31:52.152Z,100636.66
2022-12-08T13:34:41.776Z,100624.72
2022-12-08T13:37:11.190Z,100619.09
2022-12-08T13:39:40.580Z,100618.00
2022-12-08T13:42:13.088Z,100618.63
2022-12-08T13:47:54.113Z,100614.34
2022-12-08T13:59:33.880Z,100623.09
2022-12-08T14:02:18.101Z,100617.44
2022-12-08T14:05:16.805Z,100620.63
2022-12-08T14:07:34.245Z,100623.94
2022-12-08T14:10:03.546Z,100623.09
2022-12-08T14:12:31.405Z,100626.13
2022-12-08T14:15:03.657Z,100630.19
2022-12-08T14:17:31.044Z,100626.97
2022-12-08T14:19:58.891Z,100630.56
2022-12-08T14:22:31.886Z,100630.34
2022-12-08T14:24:58.605Z,100637.31
2022-12-08T14:27:30.033Z,100636.88
2022-12-08T14:30:00.068Z,100639.81
2022-12-08T14:32:44.351Z,100643.72
2022-12-08T14:35:10.699Z,100642.28
2022-12-08T14:37:50.049Z,100640.31
2022-12-08T14:40:23.815Z,100645.28
2022-12-08T14:43:06.129Z,100636.78
2022-12-08T14:45:35.007Z,100639.81
2022-12-08T14:48:38.729Z,100647.03
2022-12-08T14:51:20.591Z,100649.47
2022-12-08T14:54:08.131Z,100648.34
2022-12-08T14:56:39.400Z,100648.78
2022-12-08T14:59:14.849Z,100653.34
2022-12-08T15:01:43.093Z,100646.63
2022-12-08T15:04:12.577Z,100655.41
2022-12-08T15:07:00.762Z,100654.16
2022-12-08T15:09:32.098Z,100649.31
2022-12-08T15:12:31.860Z,100658.03
2022-12-08T15:15:10.113Z,100657.91
2022-12-08T15:18:02.925Z,100654.59
2022-12-08T15:20:38.671Z,100652.72
2022-12-08T15:23:05.860Z,100657.63
2022-12-08T15:25:32.572Z,100649.22
2022-12-08T15:27:59.043Z,100644.78
2022-12-08T15:30:28.950Z,100653.19
2022-12-08T15:32:56.171Z,100655.38
2022-12-08T15:35:23.362Z,100655.25
2022-12-08T15:37:49.881Z,100663.28
2022-12-08T15:40:19.714Z,100667.94
2022-12-08T15:42:46.548Z,100665.03
2022-12-08T15:45:14.509Z,100658.91
2022-12-08T15:47:42.539Z,100663.03
2022-12-08T15:50:21.741Z,100661.06
2022-12-08T15:52:49.437Z,100658.81
2022-12-08T15:55:20.337Z,100665.75
2022-12-08T16:00:54.590Z,100668.16
2022-12-08T16:09:13.841Z,100670.22
2022-12-08T16:12:08.802Z,100672.06
2022-12-08T16:17:24.110Z,100661.50
2022-12-08T16:19:50.618Z,100660.53
2022-12-08T16:25:22.110Z,100658.28
2022-12-08T16:30:39.125Z,100658.78
2022-12-08T16:33:05.912Z,100654.44
2022-12-08T16:35:32.380Z,100668.94
2022-12-08T16:37:58.920Z,100667.09
2022-12-08T16:40:25.580Z,100672.19
2022-12-08T16:42:52.054Z,100675.50
2022-12-08T16:45:21.610Z,100674.56
2022-12-08T16:47:53.715Z,100667.00
2022-12-08T16:50:31.878Z,100665.75
2022-12-08T16:52:58.280Z,100656.63
2022-12-08T16:55:25.501Z,100657.97
2022-12-08T16:57:52.584Z,100655.38
2022-12-08T17:00:21.650Z,100647.28
2022-12-08T17:02:48.849Z,100645.53
2022-12-08T17:05:17.111Z,100649.13
2022-12-08T17:07:45.757Z,100654.63
2022-12-08T17:10:15.764Z,100656.50
2022-12-08T17:12:42.976Z,100653.28
2022-12-08T17:15:12.471Z,100657.31
2022-12-08T17:17:39.556Z,100656.59
2022-12-08T17:20:09.016Z,100657.88
2022-12-08T17:22:35.954Z,100662.09
2022-12-08T17:25:03.177Z,100655.47
2022-12-08T17:27:29.793Z,100655.38
2022-12-08T17:29:56.434Z,100652.06
2022-12-08T17:32:23.142Z,100655.25
2022-12-08T17:34:49.739Z,100653.31
2022-12-08T17:37:17.689Z,100654.25
2022-12-08T17:39:44.551Z,100651.44
2022-12-08T17:42:11.052Z,100659.22
2022-12-08T17:44:37.568Z,100655.78
2022-12-08T17:47:05.103Z,100653.41
2022-12-08T17:49:32.852Z,100663.75
2022-12-08T17:52:03.136Z,100657.25
2022-12-08T17:54:29.902Z,100662.44
2022-12-08T17:56:59.718Z,100664.09
2022-12-08T17:59:28.033Z,100656.94
2022-12-08T18:01:55.866Z,100652.47
2022-12-08T18:04:22.937Z,100650.28
2022-12-08T18:06:49.421Z,100652.16
2022-12-08T18:09:16.107Z,100659.75
2022-12-08T18:11:43.306Z,100653.00
2022-12-08T18:14:11.046Z,100659.94
2022-12-08T18:16:43.034Z,100659.75
2022-12-08T18:19:10.483Z,100655.88
2022-12-08T18:21:37.623Z,100665.97
2022-12-08T18:24:04.709Z,100658.78
2022-12-08T18:26:31.178Z,100658.69
2022-12-08T18:29:00.704Z,100646.16
2022-12-08T18:31:27.601Z,100648.13
2022-12-08T18:33:54.334Z,100648.94
2022-12-08T18:36:23.961Z,100644.16
2022-12-08T18:38:51.580Z,100636.81
2022-12-08T18:41:23.381Z,100639.19
2022-12-08T18:43:50.027Z,100633.59
2022-12-08T18:46:16.564Z,100635.16
2022-12-08T18:48:46.472Z,100640.53
2022-12-08T18:51:14.836Z,100646.06
2022-12-08T18:53:44.025Z,100647.69
2022-12-08T18:56:28.337Z,100647.19
2022-12-08T18:59:02.589Z,100650.59
2022-12-08T19:01:31.090Z,100651.22
2022-12-08T19:06:49.799Z,100646.22
2022-12-08T19:09:16.658Z,100648.72
2022-12-08T19:11:43.268Z,100652.06
2022-12-08T19:14:10.784Z,100648.53
2022-12-08T19:16:37.710Z,100651.44
2022-12-08T19:19:04.916Z,100648.94
2022-12-08T19:21:32.503Z,100644.69
2022-12-08T19:24:00.031Z,100650.28
2022-12-08T19:26:28.125Z,100654.00
2022-12-08T19:28:54.903Z,100651.66
2022-12-08T19:31:21.726Z,100653.38
2022-12-08T19:33:49.531Z,100653.94
2022-12-08T19:36:18.418Z,100664.91
2022-12-08T19:39:04.087Z,100658.56
2022-12-08T19:41:49.627Z,100663.88
2022-12-08T19:44:45.826Z,100665.75
2022-12-08T19:47:12.460Z,100667.22
2022-12-08T19:49:39.275Z,100661.06
2022-12-08T19:52:06.304Z,100665.34
2022-12-08T19:54:32.882Z,100662.03
2022-12-08T19:56:59.506Z,100660.25
2022-12-08T19:59:26.469Z,100656.53
2022-12-08T20:01:57.644Z,100651.97
2022-12-08T20:04:25.607Z,100652.69
2022-12-08T20:06:53.458Z,100658.78
2022-12-08T20:09:20.843Z,100661.38
2022-12-08T20:11:47.524Z,100661.09
2022-12-08T20:14:13.977Z,100665.84
2022-12-08T20:16:41.803Z,100670.81
2022-12-08T20:19:09.179Z,100665.25
2022-12-08T20:21:35.569Z,100670.19
2022-12-08T20:24:01.960Z,100666.97
2022-12-08T20:26:28.486Z,100671.75
2022-12-08T20:28:54.923Z,100669.06
2022-12-08T20:31:23.944Z,100667.72
2022-12-08T20:33:50.679Z,100656.81
2022-12-08T20:36:18.920Z,100668.97
2022-12-08T20:38:48.126Z,100663.56
2022-12-08T20:41:18.311Z,100662.22
2022-12-08T20:43:45.972Z,100672.69
2022-12-08T20:46:15.499Z,100678.31
2022-12-08T20:48:42.933Z,100674.47
2022-12-08T20:51:13.410Z,100670.19
2022-12-08T20:53:39.965Z,100668.34
2022-12-08T20:56:06.707Z,100668.34
2022-12-08T20:58:33.289Z,100673.53
2022-12-08T21:00:59.686Z,100668.66
2022-12-08T21:03:26.617Z,100669.19
2022-12-08T21:05:53.298Z,100670.22
2022-12-08T21:08:20.257Z,100669.38
2022-12-08T21:10:53.811Z,100676.34
2022-12-08T21:13:20.564Z,100674.56
2022-12-08T21:15:47.296Z,100678.94
2022-12-08T21:18:16.209Z,100676.00
2022-12-08T21:20:43.739Z,100682.25
2022-12-08T21:23:10.488Z,100675.91
2022-12-08T21:25:41.604Z,100676.53
2022-12-08T21:28:08.439Z,100680.69
2022-12-08T21:30:35.176Z,100675.72
2022-12-08T21:33:01.761Z,100683.06
2022-12-08T21:35:28.523Z,100680.91
2022-12-08T21:37:55.034Z,100684.09
2022-12-08T21:40:21.445Z,100682.25
2022-12-08T21:42:48.301Z,100680.38
2022-12-08T21:45:18.110Z,100681.09
2022-12-08T21:47:46.414Z,100679.22
2022-12-08T21:50:14.655Z,100684.94
2022-12-08T21:52:43.091Z,100682.66
2022-12-08T21:55:12.240Z,100681.72
2022-12-08T21:57:39.307Z,100678.81
2022-12-08T22:00:08.516Z,100682.03
2022-12-08T22:02:35.324Z,100679.75
2022-12-08T22:05:02.165Z,100675.28
2022-12-08T22:07:28.660Z,100684.31
2022-12-08T22:09:55.227Z,100683.19
2022-12-08T22:12:21.731Z,100685.16
2022-12-08T22:14:50.923Z,100679.75
2022-12-08T22:17:18.658Z,100681.31
2022-12-08T22:19:45.353Z,100683.16
2022-12-08T22:22:11.814Z,100685.66
2022-12-08T22:24:38.257Z,100687.84
2022-12-08T22:27:04.786Z,100681.50
2022-12-08T22:29:31.180Z,100681.94
2022-12-08T22:31:57.668Z,100676.41
2022-12-08T22:34:24.176Z,100679.72
2022-12-08T22:36:50.559Z,100677.84
2022-12-08T22:39:16.961Z,100672.75
2022-12-08T22:41:43.479Z,100673.72
2022-12-08T22:44:09.953Z,100672.47
2022-12-08T22:46:37.200Z,100671.31
2022-12-08T22:49:03.925Z,100675.88
2022-12-08T22:51:30.295Z,100672.22
2022-12-08T22:53:56.836Z,100682.84
2022-12-08T22:56:23.222Z,100676.13
2022-12-08T22:58:49.782Z,100671.84
2022-12-08T23:01:29.047Z,100673.31
2022-12-08T23:03:56.825Z,100670.63
2022-12-08T23:06:24.701Z,100676.53
2022-12-08T23:08:52.294Z,100674.47
2022-12-08T23:11:19.544Z,100673.22
2022-12-08T23:13:46.643Z,100675.00
2022-12-08T23:16:13.819Z,100667.72
2022-12-08T23:18:42.266Z,100677.16
2022-12-08T23:21:16.718Z,100679.22
2022-12-08T23:23:43.238Z,100676.53
2022-12-08T23:26:20.447Z,100670.63
2022-12-08T23:28:47.353Z,100665.31
2022-12-08T23:31:14.399Z,100666.47
2022-12-08T23:33:40.958Z,100672.28
2022-12-08T23:36:07.881Z,100670.16
2022-12-08T23:38:34.471Z,100671.13
2022-12-08T23:41:06.080Z,100669.03
2022-12-08T23:43:33.326Z,100668.91
2022-12-08T23:46:00.024Z,100664.56
2022-12-08T23:48:27.890Z,100660.09
2022-12-08T23:50:54.790Z,100656.47
2022-12-08T23:53:21.225Z,100663.63
2022-12-08T23:55:47.616Z,100654.16
2022-12-08T23:58:14.334Z,100648.25
